sensor_id;sensor_type;location;lat;lon;timestamp;pressure;altitude;pressure_sealevel;temperature;humidity
42887;BME280;29032;56.028;92.904;2023-02-28T00:03:18;101030.63;;;-7.17;44.81
42887;BME280;29032;56.028;92.904;2023-02-28T00:08:20;101011.97;;;-7.15;44.97
42887;BME280;29032;56.028;92.904;2023-02-28T00:13:22;101022.06;;;-7.16;44.67
42887;BME280;29032;56.028;92.904;2023-02-28T00:18:26;101016.66;;;-7.19;45.21
42887;BME280;29032;56.028;92.904;2023-02-28T00:23:28;100955.00;;;-7.44;45.11
42887;BME280;29032;56.028;92.904;2023-02-28T00:28:31;101004.63;;;-7.18;44.94
42887;BME280;29032;56.028;92.904;2023-02-28T00:33:36;100990.25;;;-7.22;45.16
42887;BME280;29032;56.028;92.904;2023-02-28T00:38:39;100992.19;;;-7.23;44.92
42887;BME280;29032;56.028;92.904;2023-02-28T00:43:41;100981.31;;;-7.19;45.37
42887;BME280;29032;56.028;92.904;2023-02-28T00:48:44;100980.81;;;-7.00;45.10
42887;BME280;29032;56.028;92.904;2023-02-28T00:53:46;100973.06;;;-7.01;45.10
42887;BME280;29032;56.028;92.904;2023-02-28T00:58:49;100952.84;;;-7.00;45.53
42887;BME280;29032;56.028;92.904;2023-02-28T01:03:52;100949.66;;;-6.85;45.63
42887;BME280;29032;56.028;92.904;2023-02-28T01:08:56;100937.03;;;-6.64;45.27
42887;BME280;29032;56.028;92.904;2023-02-28T01:13:58;100943.47;;;-6.40;45.00
42887;BME280;29032;56.028;92.904;2023-02-28T01:19:02;100928.91;;;-6.19;44.67
42887;BME280;29032;56.028;92.904;2023-02-28T01:24:05;100931.38;;;-5.94;44.19
42887;BME280;29032;56.028;92.904;2023-02-28T01:29:07;100926.22;;;-5.85;44.26
42887;BME280;29032;56.028;92.904;2023-02-28T01:34:11;100924.63;;;-5.83;44.20
42887;BME280;29032;56.028;92.904;2023-02-28T01:39:13;100916.97;;;-5.95;44.34
42887;BME280;29032;56.028;92.904;2023-02-28T01:49:56;100905.28;;;-5.92;44.87
42887;BME280;29032;56.028;92.904;2023-02-28T01:55:00;100898.81;;;-5.71;44.88
42887;BME280;29032;56.028;92.904;2023-02-28T02:00:08;100897.16;;;-5.65;44.76
42887;BME280;29032;56.028;92.904;2023-02-28T02:05:25;100880.84;;;-5.68;44.79
42887;BME280;29032;56.028;92.904;2023-02-28T02:10:32;100878.50;;;-5.66;44.69
42887;BME280;29032;56.028;92.904;2023-02-28T02:15:34;100865.41;;;-5.48;44.64
42887;BME280;29032;56.028;92.904;2023-02-28T02:26:52;100844.38;;;-5.21;44.08
42887;BME280;29032;56.028;92.904;2023-02-28T02:37:46;100820.97;;;-4.95;43.45
42887;BME280;29032;56.028;92.904;2023-02-28T02:42:53;100809.75;;;-5.00;43.91
42887;BME280;29032;56.028;92.904;2023-02-28T02:47:59;100805.50;;;-4.78;43.93
42887;BME280;29032;56.028;92.904;2023-02-28T02:53:07;100801.91;;;-4.51;43.42
42887;BME280;29032;56.028;92.904;2023-02-28T02:58:14;100763.44;;;-4.41;43.43
42887;BME280;29032;56.028;92.904;2023-02-28T03:03:17;100773.06;;;-4.13;42.68
42887;BME280;29032;56.028;92.904;2023-02-28T03:08:21;100755.13;;;-4.14;42.41
42887;BME280;29032;56.028;92.904;2023-02-28T03:14:06;100751.75;;;-4.01;42.34
42887;BME280;29032;56.028;92.904;2023-02-28T03:19:28;100748.34;;;-3.89;42.57
42887;BME280;29032;56.028;92.904;2023-02-28T03:24:43;100737.94;;;-3.78;41.99
42887;BME280;29032;56.028;92.904;2023-02-28T03:29:53;100739.66;;;-3.68;41.52
42887;BME280;29032;56.028;92.904;2023-02-28T03:35:01;100710.97;;;-3.60;41.77
42887;BME280;29032;56.028;92.904;2023-02-28T03:40:09;100700.38;;;-3.58;42.01
42887;BME280;29032;56.028;92.904;2023-02-28T03:45:15;100690.63;;;-3.59;41.17
42887;BME280;29032;56.028;92.904;2023-02-28T03:50:21;100687.72;;;-3.52;41.72
42887;BME280;29032;56.028;92.904;2023-02-28T03:55:28;100682.25;;;-3.52;41.20
42887;BME280;29032;56.028;92.904;2023-02-28T04:00:35;100689.25;;;-3.50;41.79
42887;BME280;29032;56.028;92.904;2023-02-28T04:05:48;100673.19;;;-3.48;40.49
42887;BME280;29032;56.028;92.904;2023-02-28T04:10:56;100654.66;;;-3.73;40.57
42887;BME280;29032;56.028;92.904;2023-02-28T04:15:59;100647.34;;;-3.96;41.03
42887;BME280;29032;56.028;92.904;2023-02-28T04:21:02;100645.81;;;-4.14;41.19
42887;BME280;29032;56.028;92.904;2023-02-28T04:26:05;100633.34;;;-4.15;41.35
42887;BME280;29032;56.028;92.904;2023-02-28T04:31:09;100619.34;;;-4.17;41.67
42887;BME280;29032;56.028;92.904;2023-02-28T04:36:11;100617.72;;;-4.14;41.27
42887;BME280;29032;56.028;92.904;2023-02-28T04:41:15;100609.63;;;-4.01;41.50
42887;BME280;29032;56.028;92.904;2023-02-28T04:46:17;100613.44;;;-3.99;40.64
42887;BME280;29032;56.028;92.904;2023-02-28T04:51:19;100597.66;;;-3.91;40.54
42887;BME280;29032;56.028;92.904;2023-02-28T04:56:23;100576.28;;;-3.80;39.95
42887;BME280;29032;56.028;92.904;2023-02-28T05:01:26;100576.38;;;-3.84;39.84
42887;BME280;29032;56.028;92.904;2023-02-28T05:06:31;100560.91;;;-3.90;39.62
42887;BME280;29032;56.028;92.904;2023-02-28T05:11:35;100558.19;;;-3.74;39.63
42887;BME280;29032;56.028;92.904;2023-02-28T05:16:38;100545.19;;;-3.86;38.68
42887;BME280;29032;56.028;92.904;2023-02-28T05:21:41;100535.06;;;-4.02;38.22
42887;BME280;29032;56.028;92.904;2023-02-28T05:26:52;100513.44;;;-4.13;38.10
42887;BME280;29032;56.028;92.904;2023-02-28T05:31:54;100501.41;;;-4.15;38.52
42887;BME280;29032;56.028;92.904;2023-02-28T05:36:56;100503.97;;;-4.08;37.73
42887;BME280;29032;56.028;92.904;2023-02-28T05:42:00;100499.75;;;-3.96;37.33
42887;BME280;29032;56.028;92.904;2023-02-28T05:47:02;100479.66;;;-3.90;36.67
42887;BME280;29032;56.028;92.904;2023-02-28T05:52:05;100456.69;;;-3.92;35.98
42887;BME280;29032;56.028;92.904;2023-02-28T05:57:09;100454.16;;;-3.99;36.31
42887;BME280;29032;56.028;92.904;2023-02-28T06:02:12;100458.16;;;-4.04;36.80
42887;BME280;29032;56.028;92.904;2023-02-28T06:07:14;100435.34;;;-3.97;36.37
42887;BME280;29032;56.028;92.904;2023-02-28T06:12:18;100419.44;;;-3.86;35.93
42887;BME280;29032;56.028;92.904;2023-02-28T06:17:20;100405.91;;;-3.77;35.93
42887;BME280;29032;56.028;92.904;2023-02-28T06:22:22;100396.31;;;-3.69;36.01
42887;BME280;29032;56.028;92.904;2023-02-28T06:27:26;100388.25;;;-3.60;36.01
42887;BME280;29032;56.028;92.904;2023-02-28T06:32:28;100372.28;;;-3.48;35.72
42887;BME280;29032;56.028;92.904;2023-02-28T06:37:30;100336.06;;;-3.53;35.04
42887;BME280;29032;56.028;92.904;2023-02-28T06:42:34;100364.97;;;-3.13;35.28
42887;BME280;29032;56.028;92.904;2023-02-28T06:47:38;100355.66;;;-3.16;33.96
42887;BME280;29032;56.028;92.904;2023-02-28T06:52:40;100336.41;;;-3.25;33.70
42887;BME280;29032;56.028;92.904;2023-02-28T06:57:44;100332.56;;;-3.15;34.25
42887;BME280;29032;56.028;92.904;2023-02-28T07:02:46;100319.53;;;-3.11;34.32
42887;BME280;29032;56.028;92.904;2023-02-28T07:07:48;100305.94;;;-3.02;33.60
42887;BME280;29032;56.028;92.904;2023-02-28T07:12:52;100306.03;;;-2.92;33.61
42887;BME280;29032;56.028;92.904;2023-02-28T07:17:54;100296.72;;;-2.82;33.55
42887;BME280;29032;56.028;92.904;2023-02-28T07:22:56;100285.16;;;-2.64;33.54
42887;BME280;29032;56.028;92.904;2023-02-28T07:27:59;100251.78;;;-2.50;33.51
42887;BME280;29032;56.028;92.904;2023-02-28T07:33:01;100245.84;;;-2.49;32.42
42887;BME280;29032;56.028;92.904;2023-02-28T07:38:04;100231.72;;;-2.47;32.18
42887;BME280;29032;56.028;92.904;2023-02-28T07:43:07;100228.03;;;-2.31;33.17
42887;BME280;29032;56.028;92.904;2023-02-28T07:48:09;100218.56;;;-2.08;31.71
42887;BME280;29032;56.028;92.904;2023-02-28T07:53:11;100204.72;;;-2.05;30.50
42887;BME280;29032;56.028;92.904;2023-02-28T07:58:15;100196.66;;;-1.99;31.58
42887;BME280;29032;56.028;92.904;2023-02-28T08:03:17;100184.03;;;-1.97;30.95
42887;BME280;29032;56.028;92.904;2023-02-28T08:08:20;100172.03;;;-1.90;31.79
42887;BME280;29032;56.028;92.904;2023-02-28T08:13:23;100160.63;;;-1.79;30.84
42887;BME280;29032;56.028;92.904;2023-02-28T08:18:26;100151.81;;;-1.74;31.10
42887;BME280;29032;56.028;92.904;2023-02-28T08:23:28;100141.03;;;-1.69;30.92
42887;BME280;29032;56.028;92.904;2023-02-28T08:28:32;100148.16;;;-1.71;30.71
42887;BME280;29032;56.028;92.904;2023-02-28T08:33:34;100132.31;;;-1.76;30.53
42887;BME280;29032;56.028;92.904;2023-02-28T08:38:36;100138.69;;;-1.79;30.63
42887;BME280;29032;56.028;92.904;2023-02-28T08:43:40;100131.41;;;-1.73;29.93
42887;BME280;29032;56.028;92.904;2023-02-28T08:48:43;100123.63;;;-1.75;30.76
42887;BME280;29032;56.028;92.904;2023-02-28T08:53:45;100112.50;;;-1.71;30.44
42887;BME280;29032;56.028;92.904;2023-02-28T08:58:50;100120.13;;;-1.66;29.82
42887;BME280;29032;56.028;92.904;2023-02-28T09:03:52;100111.03;;;-1.63;31.20
42887;BME280;29032;56.028;92.904;2023-02-28T09:08:56;100111.03;;;-1.54;31.02
42887;BME280;29032;56.028;92.904;2023-02-28T09:14:00;100087.84;;;-1.62;30.03
42887;BME280;29032;56.028;92.904;2023-02-28T09:19:03;100089.66;;;-1.68;30.26
42887;BME280;29032;56.028;92.904;2023-02-28T09:24:06;100074.44;;;-1.60;30.25
42887;BME280;29032;56.028;92.904;2023-02-28T09:29:09;100078.41;;;-1.61;30.55
42887;BME280;29032;56.028;92.904;2023-02-28T09:34:11;100073.81;;;-1.64;30.63
42887;BME280;29032;56.028;92.904;2023-02-28T09:39:14;100065.59;;;-1.55;30.36
42887;BME280;29032;56.028;92.904;2023-02-28T09:44:24;100056.44;;;-1.43;29.71
42887;BME280;29032;56.028;92.904;2023-02-28T09:49:35;100055.25;;;-1.42;30.28
42887;BME280;29032;56.028;92.904;2023-02-28T09:54:40;100041.81;;;-1.40;29.92
42887;BME280;29032;56.028;92.904;2023-02-28T09:59:55;100054.31;;;-1.29;29.98
42887;BME280;29032;56.028;92.904;2023-02-28T10:05:05;100020.78;;;-1.34;29.86
42887;BME280;29032;56.028;92.904;2023-02-28T10:10:18;99999.91;;;-1.40;29.39
42887;BME280;29032;56.028;92.904;2023-02-28T10:15:29;99982.06;;;-1.45;29.78
42887;BME280;29032;56.028;92.904;2023-02-28T10:20:33;99970.91;;;-1.50;30.29
42887;BME280;29032;56.028;92.904;2023-02-28T10:25:38;99964.69;;;-1.51;30.15
42887;BME280;29032;56.028;92.904;2023-02-28T10:30:44;99960.41;;;-1.52;30.01
42887;BME280;29032;56.028;92.904;2023-02-28T10:35:47;99954.34;;;-1.56;29.45
42887;BME280;29032;56.028;92.904;2023-02-28T10:40:49;99959.81;;;-1.56;29.59
42887;BME280;29032;56.028;92.904;2023-02-28T10:45:59;99950.06;;;-1.48;30.59
42887;BME280;29032;56.028;92.904;2023-02-28T10:51:04;99938.31;;;-1.48;30.79
42887;BME280;29032;56.028;92.904;2023-02-28T10:56:16;99934.19;;;-1.44;30.51
42887;BME280;29032;56.028;92.904;2023-02-28T11:01:21;99912.22;;;-1.44;30.35
42887;BME280;29032;56.028;92.904;2023-02-28T11:06:27;99903.69;;;-1.46;30.20
42887;BME280;29032;56.028;92.904;2023-02-28T11:11:40;99907.06;;;-1.51;30.55
42887;BME280;29032;56.028;92.904;2023-02-28T11:16:45;99896.38;;;-1.40;30.56
42887;BME280;29032;56.028;92.904;2023-02-28T11:21:52;99887.19;;;-1.27;30.45
42887;BME280;29032;56.028;92.904;2023-02-28T11:26:55;99890.03;;;-1.22;30.34
42887;BME280;29032;56.028;92.904;2023-02-28T11:32:16;99879.50;;;-1.14;30.41
42887;BME280;29032;56.028;92.904;2023-02-28T11:37:19;99877.22;;;-1.16;30.21
42887;BME280;29032;56.028;92.904;2023-02-28T11:42:36;99867.41;;;-1.08;31.04
42887;BME280;29032;56.028;92.904;2023-02-28T11:47:48;99864.81;;;-1.02;30.02
42887;BME280;29032;56.028;92.904;2023-02-28T11:52:56;99864.22;;;-1.06;29.94
42887;BME280;29032;56.028;92.904;2023-02-28T11:58:18;99854.09;;;-1.00;30.54
42887;BME280;29032;56.028;92.904;2023-02-28T12:03:29;99838.88;;;-1.01;30.50
42887;BME280;29032;56.028;92.904;2023-02-28T12:08:44;99833.97;;;-0.97;30.38
42887;BME280;29032;56.028;92.904;2023-02-28T12:13:54;99824.50;;;-0.96;30.91
42887;BME280;29032;56.028;92.904;2023-02-28T12:19:13;99807.06;;;-0.93;30.47
42887;BME280;29032;56.028;92.904;2023-02-28T12:24:30;99799.28;;;-0.85;31.33
42887;BME280;29032;56.028;92.904;2023-02-28T12:29:45;99779.09;;;-0.82;30.81
42887;BME280;29032;56.028;92.904;2023-02-28T12:34:49;99777.28;;;-0.61;31.11
42887;BME280;29032;56.028;92.904;2023-02-28T12:39:56;99776.13;;;-0.69;32.23
42887;BME280;29032;56.028;92.904;2023-02-28T12:45:06;99760.56;;;-0.72;30.84
42887;BME280;29032;56.028;92.904;2023-02-28T12:50:12;99751.16;;;-0.81;30.62
42887;BME280;29032;56.028;92.904;2023-02-28T12:55:19;99752.38;;;-0.82;31.04
42887;BME280;29032;56.028;92.904;2023-02-28T13:00:25;99742.00;;;-0.78;31.19
42887;BME280;29032;56.028;92.904;2023-02-28T13:05:50;99720.59;;;-0.73;30.69
42887;BME280;29032;56.028;92.904;2023-02-28T13:10:58;99725.69;;;-0.81;30.71
42887;BME280;29032;56.028;92.904;2023-02-28T13:16:03;99718.50;;;-0.79;31.42
42887;BME280;29032;56.028;92.904;2023-02-28T13:21:08;99708.06;;;-0.74;31.69
42887;BME280;29032;56.028;92.904;2023-02-28T13:26:16;99692.34;;;-0.74;31.81
42887;BME280;29032;56.028;92.904;2023-02-28T13:31:19;99669.22;;;-0.82;31.30
42887;BME280;29032;56.028;92.904;2023-02-28T13:36:27;99664.88;;;-0.74;31.77
42887;BME280;29032;56.028;92.904;2023-02-28T13:41:45;99650.50;;;-0.69;31.85
42887;BME280;29032;56.028;92.904;2023-02-28T13:47:27;99641.22;;;-0.71;31.34
42887;BME280;29032;56.028;92.904;2023-02-28T13:52:33;99636.28;;;-0.67;31.98
42887;BME280;29032;56.028;92.904;2023-02-28T14:03:18;99609.00;;;-0.56;31.43
42887;BME280;29032;56.028;92.904;2023-02-28T14:08:28;99591.28;;;-0.55;31.01
42887;BME280;29032;56.028;92.904;2023-02-28T14:13:39;99590.63;;;-0.50;31.01
42887;BME280;29032;56.028;92.904;2023-02-28T14:18:47;99580.03;;;-0.57;30.97
42887;BME280;29032;56.028;92.904;2023-02-28T14:30:11;99556.97;;;-0.45;31.34
42887;BME280;29032;56.028;92.904;2023-02-28T14:35:28;99536.47;;;-0.44;31.23
42887;BME280;29032;56.028;92.904;2023-02-28T14:40:38;99529.94;;;-0.32;32.53
42887;BME280;29032;56.028;92.904;2023-02-28T14:45:42;99508.50;;;-0.28;31.42
42887;BME280;29032;56.028;92.904;2023-02-28T14:50:48;99509.78;;;-0.23;31.14
42887;BME280;29032;56.028;92.904;2023-02-28T14:55:53;99492.56;;;-0.24;30.98
42887;BME280;29032;56.028;92.904;2023-02-28T15:00:58;99476.69;;;-0.14;30.93
42887;BME280;29032;56.028;92.904;2023-02-28T15:06:02;99476.78;;;-0.08;31.12
42887;BME280;29032;56.028;92.904;2023-02-28T15:11:07;99474.84;;;-0.02;31.25
42887;BME280;29032;56.028;92.904;2023-02-28T15:16:15;99455.47;;;0.07;30.49
42887;BME280;29032;56.028;92.904;2023-02-28T15:21:21;99443.59;;;-0.05;30.65
42887;BME280;29032;56.028;92.904;2023-02-28T15:26:27;99435.53;;;-0.08;31.00
42887;BME280;29032;56.028;92.904;2023-02-28T15:31:34;99426.91;;;-0.16;30.84
42887;BME280;29032;56.028;92.904;2023-02-28T15:36:37;99419.28;;;-0.27;30.94
42887;BME280;29032;56.028;92.904;2023-02-28T15:41:39;99414.13;;;-0.39;30.87
42887;BME280;29032;56.028;92.904;2023-02-28T15:46:45;99401.41;;;-0.37;31.20
42887;BME280;29032;56.028;92.904;2023-02-28T15:51:58;99409.66;;;-0.37;30.81
42887;BME280;29032;56.028;92.904;2023-02-28T15:57:04;99402.16;;;-0.36;30.83
42887;BME280;29032;56.028;92.904;2023-02-28T16:02:31;99389.06;;;-0.27;31.22
42887;BME280;29032;56.028;92.904;2023-02-28T16:07:35;99373.25;;;-0.32;30.84
42887;BME280;29032;56.028;92.904;2023-02-28T16:12:39;99363.28;;;-0.29;30.79
42887;BME280;29032;56.028;92.904;2023-02-28T16:17:43;99359.31;;;-0.28;30.57
42887;BME280;29032;56.028;92.904;2023-02-28T16:22:45;99361.75;;;-0.30;30.50
42887;BME280;29032;56.028;92.904;2023-02-28T16:27:49;99333.31;;;-0.27;30.42
42887;BME280;29032;56.028;92.904;2023-02-28T16:32:55;99317.16;;;-0.19;30.53
42887;BME280;29032;56.028;92.904;2023-02-28T16:37:57;99328.16;;;-0.19;30.37
42887;BME280;29032;56.028;92.904;2023-02-28T16:43:00;99309.19;;;-0.17;30.00
42887;BME280;29032;56.028;92.904;2023-02-28T16:48:11;99305.72;;;-0.12;30.45
42887;BME280;29032;56.028;92.904;2023-02-28T16:53:15;99296.47;;;-0.15;30.28
42887;BME280;29032;56.028;92.904;2023-02-28T16:58:17;99292.75;;;-0.12;30.36
42887;BME280;29032;56.028;92.904;2023-02-28T17:03:23;99302.03;;;-0.09;29.97
42887;BME280;29032;56.028;92.904;2023-02-28T17:08:25;99283.75;;;-0.12;29.77
42887;BME280;29032;56.028;92.904;2023-02-28T17:13:28;99270.47;;;-0.14;30.09
42887;BME280;29032;56.028;92.904;2023-02-28T17:18:31;99281.25;;;-0.10;30.24
42887;BME280;29032;56.028;92.904;2023-02-28T17:23:33;99285.59;;;-0.04;30.01
42887;BME280;29032;56.028;92.904;2023-02-28T17:28:35;99264.91;;;0.01;30.02
42887;BME280;29032;56.028;92.904;2023-02-28T17:33:39;99260.66;;;0.05;29.98
42887;BME280;29032;56.028;92.904;2023-02-28T17:38:42;99248.91;;;0.05;29.81
42887;BME280;29032;56.028;92.904;2023-02-28T17:43:44;99246.16;;;0.05;29.56
42887;BME280;29032;56.028;92.904;2023-02-28T17:48:48;99235.44;;;0.07;29.68
42887;BME280;29032;56.028;92.904;2023-02-28T17:53:50;99213.97;;;0.11;29.74
42887;BME280;29032;56.028;92.904;2023-02-28T17:58:53;99215.75;;;0.14;29.50
42887;BME280;29032;56.028;92.904;2023-02-28T18:03:57;99197.00;;;0.18;29.69
42887;BME280;29032;56.028;92.904;2023-02-28T18:08:59;99196.25;;;0.18;29.70
42887;BME280;29032;56.028;92.904;2023-02-28T18:14:01;99177.31;;;0.25;29.88
42887;BME280;29032;56.028;92.904;2023-02-28T18:19:06;99160.31;;;0.27;29.83
42887;BME280;29032;56.028;92.904;2023-02-28T18:24:08;99154.03;;;0.26;29.91
42887;BME280;29032;56.028;92.904;2023-02-28T18:29:15;99133.09;;;0.35;29.79
42887;BME280;29032;56.028;92.904;2023-02-28T18:34:20;99145.91;;;0.43;29.64
42887;BME280;29032;56.028;92.904;2023-02-28T18:39:22;99136.41;;;0.44;29.71
42887;BME280;29032;56.028;92.904;2023-02-28T18:44:24;99138.66;;;0.46;29.53
42887;BME280;29032;56.028;92.904;2023-02-28T18:49:30;99133.91;;;0.46;29.74
42887;BME280;29032;56.028;92.904;2023-02-28T18:54:32;99104.09;;;0.39;29.39
42887;BME280;29032;56.028;92.904;2023-02-28T18:59:34;99106.63;;;0.43;29.36
42887;BME280;29032;56.028;92.904;2023-02-28T19:04:40;99097.16;;;0.49;30.32
42887;BME280;29032;56.028;92.904;2023-02-28T19:09:42;99097.66;;;0.53;29.42
42887;BME280;29032;56.028;92.904;2023-02-28T19:14:44;99096.94;;;0.58;29.53
42887;BME280;29032;56.028;92.904;2023-02-28T19:19:47;99081.16;;;0.59;29.48
42887;BME280;29032;56.028;92.904;2023-02-28T19:24:49;99074.91;;;0.58;29.62
42887;BME280;29032;56.028;92.904;2023-02-28T19:29:52;99066.91;;;0.60;29.58
42887;BME280;29032;56.028;92.904;2023-02-28T19:34:55;99055.66;;;0.64;29.95
42887;BME280;29032;56.028;92.904;2023-02-28T19:39:57;99049.91;;;0.68;29.67
42887;BME280;29032;56.028;92.904;2023-02-28T19:45:00;99053.69;;;0.70;29.76
42887;BME280;29032;56.028;92.904;2023-02-28T19:50:04;99031.41;;;0.74;29.67
42887;BME280;29032;56.028;92.904;2023-02-28T19:55:07;99013.13;;;0.76;29.79
42887;BME280;29032;56.028;92.904;2023-02-28T20:00:10;99003.66;;;0.77;29.12
42887;BME280;29032;56.028;92.904;2023-02-28T20:05:16;99003.38;;;0.81;29.46
42887;BME280;29032;56.028;92.904;2023-02-28T20:10:19;98985.59;;;0.76;29.17
42887;BME280;29032;56.028;92.904;2023-02-28T20:15:21;98974.34;;;0.80;29.51
42887;BME280;29032;56.028;92.904;2023-02-28T20:20:25;98963.09;;;0.89;29.83
42887;BME280;29032;56.028;92.904;2023-02-28T20:25:27;98954.06;;;0.88;29.31
42887;BME280;29032;56.028;92.904;2023-02-28T20:30:29;98945.56;;;0.86;29.47
42887;BME280;29032;56.028;92.904;2023-02-28T20:35:33;98930.56;;;0.87;29.19
42887;BME280;29032;56.028;92.904;2023-02-28T20:40:35;98938.31;;;0.89;29.32
42887;BME280;29032;56.028;92.904;2023-02-28T20:45:37;98933.06;;;0.85;29.12
42887;BME280;29032;56.028;92.904;2023-02-28T20:50:40;98939.06;;;0.89;28.95
42887;BME280;29032;56.028;92.904;2023-02-28T20:55:58;98921.28;;;0.96;28.77
42887;BME280;29032;56.028;92.904;2023-02-28T21:01:01;98926.31;;;0.92;28.76
42887;BME280;29032;56.028;92.904;2023-02-28T21:06:05;98905.78;;;0.93;29.25
42887;BME280;29032;56.028;92.904;2023-02-28T21:11:08;98918.28;;;0.94;29.00
42887;BME280;29032;56.028;92.904;2023-02-28T21:16:11;98904.28;;;0.98;28.61
42887;BME280;29032;56.028;92.904;2023-02-28T21:21:17;98894.50;;;0.97;28.64
42887;BME280;29032;56.028;92.904;2023-02-28T21:26:20;98899.00;;;1.00;29.05
42887;BME280;29032;56.028;92.904;2023-02-28T21:31:24;98898.75;;;1.03;28.76
42887;BME280;29032;56.028;92.904;2023-02-28T21:36:31;98875.72;;;1.06;28.76
42887;BME280;29032;56.028;92.904;2023-02-28T21:41:34;98879.50;;;0.98;28.55
42887;BME280;29032;56.028;92.904;2023-02-28T21:46:36;98878.22;;;0.93;28.56
42887;BME280;29032;56.028;92.904;2023-02-28T21:51:41;98877.22;;;0.96;28.41
42887;BME280;29032;56.028;92.904;2023-02-28T21:56:43;98876.47;;;0.96;28.48
42887;BME280;29032;56.028;92.904;2023-02-28T22:01:45;98865.44;;;0.96;28.98
42887;BME280;29032;56.028;92.904;2023-02-28T22:06:52;98873.72;;;1.01;28.55
42887;BME280;29032;56.028;92.904;2023-02-28T22:11:55;98871.47;;;1.00;28.90
42887;BME280;29032;56.028;92.904;2023-02-28T22:16:57;98871.47;;;1.00;29.36
42887;BME280;29032;56.028;92.904;2023-02-28T22:22:01;98887.47;;;1.07;28.75
42887;BME280;29032;56.028;92.904;2023-02-28T22:27:03;98885.72;;;1.09;28.76
42887;BME280;29032;56.028;92.904;2023-02-28T22:32:07;98899.72;;;1.11;29.05
42887;BME280;29032;56.028;92.904;2023-02-28T22:37:11;98897.75;;;1.06;28.98
42887;BME280;29032;56.028;92.904;2023-02-28T22:42:13;98905.00;;;1.04;29.18
42887;BME280;29032;56.028;92.904;2023-02-28T22:47:15;98922.28;;;1.10;29.06
42887;BME280;29032;56.028;92.904;2023-02-28T22:52:19;98921.28;;;1.07;29.69
42887;BME280;29032;56.028;92.904;2023-02-28T22:57:21;98927.53;;;0.97;30.81
42887;BME280;29032;56.028;92.904;2023-02-28T23:02:23;98932.03;;;0.88;31.99
42887;BME280;29032;56.028;92.904;2023-02-28T23:07:27;98953.31;;;0.82;33.02
42887;BME280;29032;56.028;92.904;2023-02-28T23:12:29;98981.34;;;0.75;33.84
42887;BME280;29032;56.028;92.904;2023-02-28T23:17:31;98961.31;;;0.64;35.14
42887;BME280;29032;56.028;92.904;2023-02-28T23:22:35;98964.56;;;0.51;35.74
42887;BME280;29032;56.028;92.904;2023-02-28T23:27:37;98997.81;;;0.47;35.48
42887;BME280;29032;56.028;92.904;2023-02-28T23:32:39;98971.50;;;0.41;37.31
42887;BME280;29032;56.028;92.904;2023-02-28T23:37:43;99004.72;;;0.15;38.88
42887;BME280;29032;56.028;92.904;2023-02-28T23:42:45;99014.91;;;0.03;39.66
42887;BME280;29032;56.028;92.904;2023-02-28T23:47:47;99009.97;;;-0.25;41.51
42887;BME280;29032;56.028;92.904;2023-02-28T23:52:51;99022.00;;;-0.22;41.29
42887;BME280;29032;56.028;92.904;2023-02-28T23:57:53;99023.00;;;-0.19;41.44
